Time;durP1;ratioP1;P1;durP2;ratioP2;P2;SDS_P1;SDS_P2;PMS_P1;PMS_P2;Temp;Humidity;BMP_temperature;BMP_pressure;BME280_temperature;BME280_humidity;BME280_pressure;Samples;Min_cycle;Max_cycle;Signal;HPM_P1;HPM_P2
2023/01/19 00:00:04;;;;;;;14.45;7.55;;;;;;;;;;5102817;28;20502;-81
2023/01/19 00:02:30;;;;;;;12.13;7.70;;;;;;;;;;5101608;28;20106;-82
2023/01/19 00:04:55;;;;;;;14.13;7.30;;;;;;;;;;5101789;28;20141;-81
2023/01/19 00:07:20;;;;;;;12.90;7.38;;;;;;;;;;5092081;28;20411;-81
2023/01/19 00:09:46;;;;;;;12.35;7.35;;;;;;;;;;5102051;28;20053;-82
2023/01/19 00:12:11;;;;;;;12.52;6.97;;;;;;;;;;5107412;27;20505;-82
2023/01/19 00:14:37;;;;;;;13.75;7.60;;;;;;;;;;5100443;28;20034;-81
2023/01/19 00:17:02;;;;;;;11.48;7.20;;;;;;;;;;5099672;28;20027;-82
2023/01/19 00:19:28;;;;;;;13.32;6.40;;;;;;;;;;5101006;28;20099;-82
2023/01/19 00:21:53;;;;;;;11.60;6.68;;;;;;;;;;5104257;28;20012;-82
2023/01/19 00:24:19;;;;;;;10.73;6.68;;;;;;;;;;5106268;28;20104;-81
2023/01/19 00:26:45;;;;;;;11.85;7.05;;;;;;;;;;5103534;28;20024;-82
2023/01/19 00:29:11;;;;;;;12.25;6.78;;;;;;;;;;5099706;28;20043;-82
2023/01/19 00:31:37;;;;;;;12.38;6.82;;;;;;;;;;5111367;28;20490;-81
2023/01/19 00:34:03;;;;;;;13.43;6.20;;;;;;;;;;5102981;28;20031;-82
2023/01/19 00:36:28;;;;;;;10.65;6.43;;;;;;;;;;5098242;28;20536;-82
2023/01/19 00:38:54;;;;;;;9.68;6.07;;;;;;;;;;5097966;28;20110;-82
2023/01/19 00:42:38;;;;;;;11.55;6.53;;;;;;;;;;5094431;28;20153;-82
2023/01/19 00:44:05;;;;;;;11.50;6.60;;;;;;;;;;5098186;28;20036;-82
2023/01/19 00:46:30;;;;;;;9.82;5.85;;;;;;;;;;5094641;28;20047;-82
2023/01/19 00:48:55;;;;;;;9.65;5.72;;;;;;;;;;5096582;28;20028;-82
2023/01/19 00:51:21;;;;;;;9.50;5.57;;;;;;;;;;5095079;28;20020;-82
2023/01/19 00:53:46;;;;;;;11.60;6.07;;;;;;;;;;5092920;28;20167;-82
2023/01/19 00:56:11;;;;;;;9.63;6.00;;;;;;;;;;5101417;28;20020;-81
2023/01/19 00:58:37;;;;;;;10.43;5.22;;;;;;;;;;5097092;28;20466;-82
2023/01/19 01:01:03;;;;;;;9.60;5.45;;;;;;;;;;5095559;28;20031;-81
2023/01/19 01:03:29;;;;;;;9.85;5.65;;;;;;;;;;5102080;28;20035;-81
2023/01/19 01:05:54;;;;;;;9.95;5.60;;;;;;;;;;5094385;28;20399;-82
2023/01/19 01:08:19;;;;;;;11.80;6.13;;;;;;;;;;5095282;28;20035;-81
2023/01/19 01:10:45;;;;;;;10.55;5.32;;;;;;;;;;5092498;27;20058;-81
2023/01/19 01:13:10;;;;;;;11.27;6.05;;;;;;;;;;5092449;28;20038;-82
2023/01/19 01:15:36;;;;;;;10.80;5.97;;;;;;;;;;5098523;28;20496;-82
2023/01/19 01:18:01;;;;;;;9.93;6.22;;;;;;;;;;5083713;28;20039;-82
2023/01/19 01:20:29;;;;;;;11.02;6.13;;;;;;;;;;5092650;28;20028;-82
2023/01/19 01:22:55;;;;;;;9.73;6.18;;;;;;;;;;5089218;28;20039;-82
2023/01/19 01:25:22;;;;;;;10.68;6.25;;;;;;;;;;5098355;28;20024;-82
2023/01/19 01:27:48;;;;;;;11.23;6.22;;;;;;;;;;5096366;28;20036;-82
2023/01/19 01:30:14;;;;;;;13.57;7.25;;;;;;;;;;5097420;28;20031;-83
2023/01/19 01:32:40;;;;;;;11.82;7.03;;;;;;;;;;5095087;28;20028;-82
2023/01/19 01:35:07;;;;;;;11.77;6.60;;;;;;;;;;5102176;28;20399;-82
2023/01/19 01:37:33;;;;;;;10.30;6.20;;;;;;;;;;5092030;28;20491;-82
2023/01/19 01:39:59;;;;;;;11.32;6.13;;;;;;;;;;5094988;28;20080;-82
2023/01/19 01:42:27;;;;;;;9.63;5.55;;;;;;;;;;5085475;28;20043;-82
2023/01/19 01:44:55;;;;;;;12.20;6.45;;;;;;;;;;5092171;28;20492;-82
2023/01/19 01:47:24;;;;;;;9.15;5.10;;;;;;;;;;5097138;28;20060;-82
2023/01/19 01:50:14;;;;;;;8.77;5.50;;;;;;;;;;5099447;28;20042;-82
2023/01/19 01:52:46;;;;;;;8.95;4.95;;;;;;;;;;5086169;28;20027;-82
2023/01/19 01:55:12;;;;;;;9.93;5.43;;;;;;;;;;5085175;28;20063;-82
2023/01/19 01:57:42;;;;;;;9.38;5.88;;;;;;;;;;5085906;28;20065;-82
2023/01/19 02:00:08;;;;;;;9.90;5.75;;;;;;;;;;5090109;28;20424;-82
2023/01/19 02:02:51;;;;;;;9.07;5.18;;;;;;;;;;5085926;28;20032;-82
2023/01/19 02:05:22;;;;;;;11.38;5.20;;;;;;;;;;5089556;28;20483;-82
2023/01/19 02:13:37;;;;;;;10.50;5.60;;;;;;;;;;5095931;28;20519;-81
2023/01/19 02:16:06;;;;;;;10.32;6.10;;;;;;;;;;5091714;28;20501;-82
2023/01/19 02:18:32;;;;;;;10.10;5.82;;;;;;;;;;5089881;28;20052;-82
2023/01/19 02:21:17;;;;;;;9.52;5.53;;;;;;;;;;5088672;28;20024;-83
2023/01/19 02:23:43;;;;;;;7.90;5.18;;;;;;;;;;5098782;28;20020;-82
2023/01/19 02:26:11;;;;;;;9.77;5.63;;;;;;;;;;5097865;28;20386;-82
2023/01/19 02:28:40;;;;;;;10.35;5.03;;;;;;;;;;5093201;28;20103;-82
2023/01/19 02:31:05;;;;;;;8.50;5.10;;;;;;;;;;5098942;28;20036;-82
2023/01/19 02:33:31;;;;;;;9.75;5.10;;;;;;;;;;5096431;28;20909;-82
2023/01/19 02:35:56;;;;;;;10.18;5.80;;;;;;;;;;5090389;28;20107;-82
2023/01/19 02:38:26;;;;;;;8.88;4.90;;;;;;;;;;5093871;28;20050;-82
2023/01/19 02:40:54;;;;;;;7.88;5.10;;;;;;;;;;5092064;28;20027;-82
2023/01/19 02:43:21;;;;;;;8.57;4.50;;;;;;;;;;5093975;28;20032;-82
2023/01/19 02:45:47;;;;;;;7.63;4.28;;;;;;;;;;5092962;28;20020;-82
2023/01/19 02:48:13;;;;;;;7.00;4.05;;;;;;;;;;5100905;28;20088;-82
2023/01/19 02:50:48;;;;;;;6.50;3.92;;;;;;;;;;5089542;28;20035;-82
2023/01/19 02:53:47;;;;;;;6.18;3.50;;;;;;;;;;5089917;28;20034;-82
2023/01/19 02:56:15;;;;;;;7.00;3.83;;;;;;;;;;5092061;28;20036;-82
2023/01/19 02:59:01;;;;;;;6.32;3.47;;;;;;;;;;5090104;28;20479;-82
2023/01/19 03:01:52;;;;;;;5.68;3.63;;;;;;;;;;5095270;28;20024;-82
2023/01/19 03:04:43;;;;;;;5.72;3.60;;;;;;;;;;5094443;28;20106;-82
2023/01/19 03:07:30;;;;;;;5.82;3.72;;;;;;;;;;5093027;28;20030;-82
2023/01/19 03:10:10;;;;;;;4.88;2.88;;;;;;;;;;5095054;28;20093;-82
2023/01/19 03:12:52;;;;;;;7.07;3.42;;;;;;;;;;5108729;27;20069;-82
2023/01/19 03:15:24;;;;;;;5.90;3.55;;;;;;;;;;5096618;28;20107;-82
2023/01/19 03:17:51;;;;;;;6.90;3.88;;;;;;;;;;5095099;28;20127;-82
2023/01/19 03:20:22;;;;;;;6.30;3.63;;;;;;;;;;5106547;28;20578;-82
2023/01/19 03:22:54;;;;;;;5.20;3.33;;;;;;;;;;5096817;28;20035;-82
2023/01/19 03:25:22;;;;;;;7.43;4.07;;;;;;;;;;5096743;28;20089;-82
2023/01/19 03:27:51;;;;;;;6.28;3.33;;;;;;;;;;5100249;28;20028;-82
2023/01/19 03:30:27;;;;;;;6.93;3.40;;;;;;;;;;5096190;28;20036;-82
2023/01/19 03:32:58;;;;;;;5.90;3.08;;;;;;;;;;5104018;28;20024;-82
2023/01/19 03:35:28;;;;;;;6.65;3.03;;;;;;;;;;5098920;28;20339;-82
2023/01/19 03:37:56;;;;;;;2.50;1.40;;;;;;;;;;5099535;28;20027;-82
2023/01/19 03:40:26;;;;;;;1.33;0.40;;;;;;;;;;5103763;28;20028;-82
2023/01/19 03:42:52;;;;;;;0.55;0.38;;;;;;;;;;5100357;28;20387;-81
2023/01/19 03:45:18;;;;;;;1.55;0.28;;;;;;;;;;5096614;28;20031;-81
2023/01/19 03:47:44;;;;;;;0.40;0.30;;;;;;;;;;5098428;28;20027;-82
2023/01/19 03:50:15;;;;;;;0.90;0.38;;;;;;;;;;5099919;28;20042;-82
2023/01/19 03:52:41;;;;;;;0.43;0.20;;;;;;;;;;5091463;28;20479;-82
2023/01/19 03:55:08;;;;;;;0.60;0.30;;;;;;;;;;5097431;28;20032;-82
2023/01/19 03:57:34;;;;;;;0.60;0.40;;;;;;;;;;5095395;28;20025;-81
2023/01/19 03:59:59;;;;;;;0.60;0.30;;;;;;;;;;5100265;28;21084;-82
2023/01/19 04:02:25;;;;;;;1.10;0.40;;;;;;;;;;5094119;28;20016;-81
2023/01/19 04:04:50;;;;;;;0.70;0.38;;;;;;;;;;5098401;28;20475;-82
2023/01/19 04:07:15;;;;;;;2.55;0.60;;;;;;;;;;5096571;28;20040;-82
2023/01/19 04:09:41;;;;;;;1.77;0.50;;;;;;;;;;5101212;28;20035;-81
2023/01/19 04:12:07;;;;;;;2.67;0.70;;;;;;;;;;5099038;27;20159;-82
2023/01/19 04:14:32;;;;;;;0.85;0.40;;;;;;;;;;5092510;28;20387;-81
2023/01/19 04:16:58;;;;;;;1.05;0.50;;;;;;;;;;5102817;28;20028;-81
2023/01/19 04:19:24;;;;;;;0.90;0.40;;;;;;;;;;5097282;28;20447;-82
2023/01/19 04:21:50;;;;;;;2.38;0.50;;;;;;;;;;5094220;28;20543;-82
2023/01/19 04:24:16;;;;;;;1.27;0.68;;;;;;;;;;5089786;28;20429;-82
2023/01/19 04:26:42;;;;;;;2.42;0.60;;;;;;;;;;5095689;28;20097;-82
2023/01/19 04:29:07;;;;;;;0.90;0.60;;;;;;;;;;5094885;28;20028;-82
2023/01/19 04:31:34;;;;;;;1.13;0.65;;;;;;;;;;5096012;28;20028;-82
2023/01/19 04:34:00;;;;;;;1.48;0.60;;;;;;;;;;5093961;28;20497;-82
2023/01/19 04:36:26;;;;;;;1.75;0.60;;;;;;;;;;5096267;27;20100;-82
2023/01/19 04:38:51;;;;;;;0.95;0.50;;;;;;;;;;5105758;28;20028;-82
2023/01/19 04:41:17;;;;;;;1.33;0.70;;;;;;;;;;5098831;28;20114;-82
2023/01/19 04:43:42;;;;;;;0.77;0.57;;;;;;;;;;5101745;28;20425;-82
2023/01/19 04:46:08;;;;;;;1.05;0.57;;;;;;;;;;5094140;28;20073;-82
2023/01/19 04:48:33;;;;;;;2.20;0.60;;;;;;;;;;5097072;28;20035;-82
2023/01/19 04:50:59;;;;;;;1.35;0.50;;;;;;;;;;5094116;28;20040;-82
2023/01/19 04:53:24;;;;;;;0.93;0.50;;;;;;;;;;5098180;28;20042;-82
2023/01/19 04:55:54;;;;;;;1.00;0.55;;;;;;;;;;5091420;28;20471;-82
2023/01/19 04:58:19;;;;;;;0.55;0.52;;;;;;;;;;5094575;28;20124;-82
2023/01/19 05:00:45;;;;;;;1.58;0.50;;;;;;;;;;5092758;28;20476;-82
2023/01/19 05:03:10;;;;;;;0.63;0.50;;;;;;;;;;5095827;28;20391;-82
2023/01/19 05:05:36;;;;;;;1.73;0.73;;;;;;;;;;5096676;28;20034;-82
2023/01/19 05:08:01;;;;;;;1.67;0.40;;;;;;;;;;5091803;28;20084;-82
2023/01/19 05:10:27;;;;;;;2.95;0.60;;;;;;;;;;5088578;27;20475;-82
2023/01/19 05:12:53;;;;;;;0.60;0.50;;;;;;;;;;5086134;28;20110;-82
2023/01/19 05:15:18;;;;;;;1.52;0.40;;;;;;;;;;5089884;28;20031;-82
2023/01/19 05:17:44;;;;;;;1.45;0.50;;;;;;;;;;5087094;28;20056;-82
2023/01/19 05:20:11;;;;;;;0.90;0.40;;;;;;;;;;5092573;28;20030;-82
2023/01/19 05:22:38;;;;;;;1.83;0.40;;;;;;;;;;5098745;28;20051;-82
2023/01/19 05:25:04;;;;;;;1.83;0.40;;;;;;;;;;5089104;28;20578;-82
2023/01/19 05:27:29;;;;;;;1.23;0.43;;;;;;;;;;5091904;28;20035;-82
2023/01/19 05:29:55;;;;;;;0.98;0.50;;;;;;;;;;5091257;28;20448;-82
2023/01/19 05:32:20;;;;;;;1.08;0.47;;;;;;;;;;5087877;28;20028;-82
2023/01/19 05:34:46;;;;;;;2.63;0.63;;;;;;;;;;5089849;28;21869;-82
2023/01/19 05:37:11;;;;;;;2.38;0.52;;;;;;;;;;5091187;28;20063;-82
2023/01/19 05:39:36;;;;;;;1.08;0.50;;;;;;;;;;5094270;28;20106;-82
2023/01/19 05:42:02;;;;;;;0.68;0.50;;;;;;;;;;5099316;28;20068;-82
2023/01/19 05:44:28;;;;;;;1.50;0.60;;;;;;;;;;5099739;28;20038;-82
2023/01/19 05:46:54;;;;;;;2.10;0.60;;;;;;;;;;5092775;28;20548;-82
2023/01/19 05:49:19;;;;;;;2.67;0.90;;;;;;;;;;5099231;28;20031;-82
2023/01/19 05:51:45;;;;;;;1.20;0.65;;;;;;;;;;5096183;28;20039;-82
2023/01/19 05:54:16;;;;;;;2.05;0.70;;;;;;;;;;5097408;28;20052;-82
2023/01/19 05:56:42;;;;;;;2.67;0.77;;;;;;;;;;5094242;28;20430;-82
2023/01/19 05:59:08;;;;;;;1.00;0.60;;;;;;;;;;5096771;28;20035;-82
2023/01/19 06:01:35;;;;;;;1.60;0.60;;;;;;;;;;5096553;28;20028;-82
2023/01/19 06:04:01;;;;;;;2.00;0.80;;;;;;;;;;5101723;28;20027;-82
2023/01/19 06:06:26;;;;;;;2.17;1.00;;;;;;;;;;5094016;28;20073;-82
2023/01/19 06:08:52;;;;;;;1.65;0.82;;;;;;;;;;5096658;28;20051;-82
2023/01/19 06:11:17;;;;;;;0.95;0.80;;;;;;;;;;5106130;28;20028;-82
2023/01/19 06:13:43;;;;;;;1.45;0.82;;;;;;;;;;5098162;28;20028;-82
2023/01/19 06:16:09;;;;;;;1.60;0.90;;;;;;;;;;5100026;28;20032;-82
2023/01/19 06:18:34;;;;;;;2.45;1.10;;;;;;;;;;5094058;28;20020;-82
2023/01/19 06:21:07;;;;;;;1.83;0.90;;;;;;;;;;5095901;28;20036;-82
2023/01/19 06:23:34;;;;;;;3.55;1.00;;;;;;;;;;5096874;28;20479;-82
2023/01/19 06:26:00;;;;;;;3.05;1.10;;;;;;;;;;5105185;28;20535;-82
2023/01/19 06:28:26;;;;;;;2.08;0.98;;;;;;;;;;5092128;28;20035;-82
2023/01/19 06:30:54;;;;;;;1.42;0.73;;;;;;;;;;5091819;28;20058;-82
2023/01/19 06:33:19;;;;;;;2.75;0.88;;;;;;;;;;5098899;28;20030;-82
2023/01/19 06:35:47;;;;;;;4.53;1.10;;;;;;;;;;5102667;28;20032;-82
2023/01/19 06:38:12;;;;;;;2.40;0.90;;;;;;;;;;5099930;28;20517;-82
2023/01/19 06:40:39;;;;;;;1.05;0.63;;;;;;;;;;5096602;28;20024;-82
2023/01/19 06:43:05;;;;;;;3.22;0.85;;;;;;;;;;5101948;28;20034;-82
2023/01/19 06:45:30;;;;;;;1.52;0.80;;;;;;;;;;5098885;28;20028;-82
2023/01/19 06:47:56;;;;;;;3.33;0.98;;;;;;;;;;5101701;28;20024;-82
2023/01/19 06:50:21;;;;;;;2.92;1.00;;;;;;;;;;5098946;28;20016;-82
2023/01/19 06:52:49;;;;;;;2.88;0.90;;;;;;;;;;5100518;28;20032;-82
2023/01/19 06:55:15;;;;;;;1.77;0.93;;;;;;;;;;5093530;28;20020;-82
2023/01/19 06:57:40;;;;;;;2.70;1.25;;;;;;;;;;5093537;28;20043;-82
2023/01/19 07:00:07;;;;;;;2.35;1.27;;;;;;;;;;5097839;28;20030;-82
2023/01/19 07:02:41;;;;;;;4.47;1.40;;;;;;;;;;5094572;28;20391;-82
2023/01/19 07:05:08;;;;;;;3.83;1.40;;;;;;;;;;5101637;28;20388;-82
2023/01/19 07:07:33;;;;;;;4.03;1.90;;;;;;;;;;5092706;28;20035;-82
2023/01/19 07:09:59;;;;;;;4.28;2.17;;;;;;;;;;5101358;28;20476;-82
2023/01/19 07:12:24;;;;;;;4.90;2.08;;;;;;;;;;5100013;28;20032;-82
2023/01/19 07:14:50;;;;;;;5.05;1.98;;;;;;;;;;5100376;28;20032;-82
2023/01/19 07:17:16;;;;;;;6.85;2.47;;;;;;;;;;5101152;28;20032;-82
2023/01/19 07:19:41;;;;;;;4.43;2.00;;;;;;;;;;5102465;28;20028;-82
2023/01/19 07:22:07;;;;;;;4.82;3.00;;;;;;;;;;5106371;28;20028;-82
2023/01/19 07:24:33;;;;;;;6.85;2.65;;;;;;;;;;5101692;28;20031;-82
2023/01/19 07:26:59;;;;;;;4.10;2.63;;;;;;;;;;5103401;28;20031;-81
2023/01/19 07:29:24;;;;;;;5.03;2.72;;;;;;;;;;5099706;28;20364;-82
2023/01/19 07:31:53;;;;;;;5.57;2.92;;;;;;;;;;5096189;28;20036;-82
2023/01/19 07:34:18;;;;;;;5.72;3.00;;;;;;;;;;5095719;28;20019;-82
2023/01/19 07:36:44;;;;;;;6.30;3.03;;;;;;;;;;5095794;28;20484;-81
2023/01/19 07:39:09;;;;;;;6.57;3.10;;;;;;;;;;5100863;28;20037;-81
2023/01/19 07:41:35;;;;;;;5.75;3.45;;;;;;;;;;5095496;28;20040;-82
2023/01/19 07:44:00;;;;;;;4.43;3.15;;;;;;;;;;5094818;28;20028;-82
2023/01/19 07:46:25;;;;;;;9.30;4.40;;;;;;;;;;5097415;28;20022;-82
2023/01/19 07:48:51;;;;;;;10.95;4.80;;;;;;;;;;5094415;28;20061;-82
2023/01/19 07:51:19;;;;;;;9.05;5.00;;;;;;;;;;5098442;28;20073;-82
2023/01/19 07:53:45;;;;;;;7.93;4.68;;;;;;;;;;5104824;28;20480;-81
2023/01/19 07:56:10;;;;;;;10.40;5.18;;;;;;;;;;5094032;28;20032;-82
2023/01/19 07:58:36;;;;;;;8.75;4.57;;;;;;;;;;5102560;28;20106;-81
2023/01/19 08:01:07;;;;;;;8.57;4.57;;;;;;;;;;5091619;28;20030;-82
2023/01/19 08:03:33;;;;;;;8.00;4.53;;;;;;;;;;5097752;28;20024;-81
2023/01/19 08:05:58;;;;;;;9.05;5.13;;;;;;;;;;5105880;28;20023;-81
2023/01/19 08:08:24;;;;;;;9.18;4.90;;;;;;;;;;5097558;28;20077;-81
2023/01/19 08:10:50;;;;;;;9.40;4.97;;;;;;;;;;5109996;27;20024;-82
2023/01/19 08:13:16;;;;;;;7.00;4.32;;;;;;;;;;5101338;28;20027;-81
2023/01/19 08:15:41;;;;;;;9.20;4.85;;;;;;;;;;5104120;28;20024;-81
2023/01/19 08:18:10;;;;;;;9.55;4.90;;;;;;;;;;5099628;28;20024;-82
2023/01/19 08:20:36;;;;;;;10.43;4.53;;;;;;;;;;5105112;28;20164;-82
2023/01/19 08:23:01;;;;;;;7.55;4.35;;;;;;;;;;5096631;28;20102;-82
2023/01/19 08:25:38;;;;;;;7.30;3.70;;;;;;;;;;5102287;28;20028;-81
2023/01/19 08:28:05;;;;;;;9.32;4.68;;;;;;;;;;5097146;28;20028;-81
2023/01/19 08:30:31;;;;;;;8.07;4.40;;;;;;;;;;5097837;28;20128;-82
2023/01/19 08:33:02;;;;;;;7.43;4.22;;;;;;;;;;5100175;28;20058;-82
2023/01/19 08:35:32;;;;;;;10.38;4.07;;;;;;;;;;5103379;28;20043;-81
2023/01/19 08:38:00;;;;;;;6.43;3.65;;;;;;;;;;5100635;28;20028;-81
2023/01/19 08:40:34;;;;;;;9.63;3.90;;;;;;;;;;5106457;28;20027;-81
2023/01/19 08:43:02;;;;;;;7.55;3.38;;;;;;;;;;5103952;28;20480;-82
2023/01/19 08:45:29;;;;;;;5.90;3.30;;;;;;;;;;5102573;28;20019;-82
2023/01/19 08:47:57;;;;;;;6.38;2.30;;;;;;;;;;5098146;28;21019;-81
2023/01/19 08:50:23;;;;;;;4.38;2.35;;;;;;;;;;5097902;28;20110;-81
2023/01/19 08:52:48;;;;;;;5.28;2.28;;;;;;;;;;5098520;28;20106;-82
2023/01/19 08:55:14;;;;;;;7.28;2.50;;;;;;;;;;5110324;28;20493;-81
2023/01/19 08:57:39;;;;;;;7.15;2.38;;;;;;;;;;5102968;28;20062;-82
2023/01/19 09:00:06;;;;;;;6.75;2.30;;;;;;;;;;5095618;28;20380;-81
2023/01/19 09:02:32;;;;;;;5.22;2.40;;;;;;;;;;5108785;28;20374;-81
2023/01/19 09:04:58;;;;;;;4.38;2.47;;;;;;;;;;5095888;27;20103;-81
2023/01/19 09:07:23;;;;;;;6.50;2.50;;;;;;;;;;5095548;28;20028;-81
2023/01/19 09:09:48;;;;;;;10.52;2.70;;;;;;;;;;5104824;28;20057;-81
2023/01/19 09:12:14;;;;;;;11.27;3.80;;;;;;;;;;5104397;27;20032;-82
2023/01/19 09:14:39;;;;;;;9.20;3.45;;;;;;;;;;5100440;28;20080;-82
2023/01/19 09:17:05;;;;;;;7.35;3.83;;;;;;;;;;5099784;28;20023;-81
2023/01/19 09:19:30;;;;;;;6.82;3.80;;;;;;;;;;5103571;28;20063;-81
2023/01/19 09:21:57;;;;;;;9.63;3.05;;;;;;;;;;5094554;28;20024;-81
2023/01/19 09:24:23;;;;;;;5.88;3.15;;;;;;;;;;5097314;28;20531;-81
2023/01/19 09:26:48;;;;;;;7.53;3.33;;;;;;;;;;5104422;28;20107;-82
2023/01/19 09:29:14;;;;;;;7.13;3.70;;;;;;;;;;5112990;28;20475;-81
2023/01/19 09:31:39;;;;;;;14.23;4.35;;;;;;;;;;5099246;28;20039;-82
2023/01/19 09:34:05;;;;;;;10.15;4.60;;;;;;;;;;5098887;28;20078;-81
2023/01/19 09:36:31;;;;;;;12.88;4.60;;;;;;;;;;5098271;28;20031;-82
2023/01/19 09:38:56;;;;;;;8.93;4.35;;;;;;;;;;5099668;28;20031;-82
2023/01/19 09:41:24;;;;;;;11.68;4.55;;;;;;;;;;5093531;28;20017;-81
2023/01/19 09:43:56;;;;;;;11.80;4.68;;;;;;;;;;5106595;28;20020;-81
2023/01/19 09:46:44;;;;;;;11.35;5.28;;;;;;;;;;5103861;28;20039;-82
2023/01/19 09:49:20;;;;;;;10.38;4.97;;;;;;;;;;5102379;28;20028;-81
2023/01/19 09:51:48;;;;;;;12.00;5.60;;;;;;;;;;5095682;28;20027;-82
2023/01/19 09:54:19;;;;;;;12.23;6.60;;;;;;;;;;5106437;28;20391;-82
2023/01/19 09:56:47;;;;;;;12.88;6.97;;;;;;;;;;5099034;28;20173;-81
2023/01/19 09:59:30;;;;;;;13.95;7.03;;;;;;;;;;5101582;28;20024;-81
2023/01/19 10:02:05;;;;;;;13.73;7.32;;;;;;;;;;5094365;28;20582;-81
2023/01/19 10:04:35;;;;;;;17.67;7.88;;;;;;;;;;5102779;28;20467;-81
2023/01/19 10:07:32;;;;;;;14.10;7.90;;;;;;;;;;5099374;28;20049;-81
2023/01/19 10:10:06;;;;;;;15.98;8.15;;;;;;;;;;5086193;28;20679;-82
2023/01/19 10:12:46;;;;;;;18.17;7.90;;;;;;;;;;5103805;27;20111;-81
2023/01/19 10:15:44;;;;;;;14.82;8.52;;;;;;;;;;5104956;28;20475;-82
2023/01/19 10:18:19;;;;;;;15.90;7.75;;;;;;;;;;5059019;28;20088;-81
2023/01/19 10:20:59;;;;;;;15.70;9.10;;;;;;;;;;5101036;28;20031;-81
2023/01/19 10:23:33;;;;;;;18.35;8.45;;;;;;;;;;5096456;28;20031;-82
2023/01/19 10:26:06;;;;;;;13.38;7.55;;;;;;;;;;5099463;28;20082;-81
2023/01/19 10:28:32;;;;;;;16.13;8.18;;;;;;;;;;5097492;28;20035;-81
2023/01/19 10:30:57;;;;;;;16.23;8.70;;;;;;;;;;5099215;28;20052;-81
2023/01/19 10:33:23;;;;;;;17.27;8.75;;;;;;;;;;5095807;28;20066;-81
2023/01/19 10:35:49;;;;;;;17.48;8.10;;;;;;;;;;5093788;28;20024;-81
2023/01/19 10:38:20;;;;;;;17.15;8.38;;;;;;;;;;5096162;28;20473;-81
2023/01/19 10:40:57;;;;;;;16.67;8.70;;;;;;;;;;5100318;28;20023;-81
2023/01/19 10:43:42;;;;;;;16.50;8.23;;;;;;;;;;5100093;28;20065;-81
2023/01/19 10:46:18;;;;;;;18.10;8.57;;;;;;;;;;5099830;28;20015;-81
2023/01/19 10:48:50;;;;;;;17.25;9.20;;;;;;;;;;5092741;28;20024;-81
2023/01/19 10:51:16;;;;;;;13.60;9.02;;;;;;;;;;5107110;28;20043;-81
2023/01/19 10:53:55;;;;;;;17.25;10.10;;;;;;;;;;5103171;28;20031;-81
2023/01/19 10:56:25;;;;;;;19.42;8.82;;;;;;;;;;5103453;28;20391;-81
2023/01/19 10:58:51;;;;;;;15.80;9.52;;;;;;;;;;5097690;28;20032;-82
2023/01/19 11:01:23;;;;;;;18.88;9.30;;;;;;;;;;5099684;28;20020;-81
2023/01/19 11:03:49;;;;;;;18.98;9.10;;;;;;;;;;5096236;28;20166;-82
2023/01/19 11:06:15;;;;;;;17.95;9.30;;;;;;;;;;5096596;28;20032;-81
2023/01/19 11:08:42;;;;;;;15.05;8.52;;;;;;;;;;5099407;28;20517;-82
2023/01/19 11:11:11;;;;;;;20.75;9.90;;;;;;;;;;5097588;28;20027;-81
2023/01/19 11:13:40;;;;;;;17.75;8.05;;;;;;;;;;5095640;28;20100;-81
2023/01/19 11:16:07;;;;;;;15.35;7.85;;;;;;;;;;5100536;28;20361;-81
2023/01/19 11:18:36;;;;;;;15.68;7.20;;;;;;;;;;5094489;28;20035;-81
2023/01/19 11:21:07;;;;;;;13.55;6.15;;;;;;;;;;5099501;28;20031;-81
2023/01/19 11:23:40;;;;;;;13.02;6.22;;;;;;;;;;5095676;28;20038;-81
2023/01/19 11:26:08;;;;;;;13.45;5.95;;;;;;;;;;5111158;28;20092;-82
2023/01/19 11:28:41;;;;;;;11.80;5.93;;;;;;;;;;5109476;28;20064;-82
2023/01/19 11:31:09;;;;;;;11.90;6.57;;;;;;;;;;5106200;28;20430;-81
2023/01/19 11:33:40;;;;;;;10.93;6.53;;;;;;;;;;5097420;28;20024;-81
2023/01/19 11:36:19;;;;;;;11.07;6.13;;;;;;;;;;5091629;28;20023;-82
2023/01/19 11:38:49;;;;;;;14.23;6.82;;;;;;;;;;5110778;28;20036;-82
2023/01/19 11:41:26;;;;;;;13.93;6.05;;;;;;;;;;5095754;28;20031;-82
2023/01/19 11:43:55;;;;;;;10.63;5.63;;;;;;;;;;5106910;28;20032;-82
2023/01/19 11:46:23;;;;;;;12.40;6.00;;;;;;;;;;5095594;28;20028;-82
2023/01/19 11:49:00;;;;;;;11.68;5.80;;;;;;;;;;5107386;28;20536;-81
2023/01/19 11:51:49;;;;;;;12.60;5.93;;;;;;;;;;5107745;28;20023;-82
2023/01/19 11:54:24;;;;;;;9.85;5.65;;;;;;;;;;5104909;28;20107;-81
2023/01/19 11:56:52;;;;;;;13.45;5.63;;;;;;;;;;5106365;28;20027;-81
2023/01/19 11:59:18;;;;;;;10.10;5.40;;;;;;;;;;5110165;28;20024;-82
2023/01/19 12:01:54;;;;;;;11.98;5.50;;;;;;;;;;5103214;28;20051;-82
2023/01/19 12:04:26;;;;;;;13.13;5.85;;;;;;;;;;5105050;28;20035;-82
2023/01/19 12:06:54;;;;;;;10.63;5.75;;;;;;;;;;5104383;28;20498;-81
2023/01/19 12:09:25;;;;;;;13.32;5.70;;;;;;;;;;5110557;28;20032;-81
2023/01/19 12:12:06;;;;;;;11.75;5.28;;;;;;;;;;5107063;27;20066;-81
2023/01/19 12:14:50;;;;;;;11.30;4.75;;;;;;;;;;5103378;28;20024;-82
2023/01/19 12:17:32;;;;;;;10.80;4.97;;;;;;;;;;5100445;28;20020;-81
2023/01/19 12:20:22;;;;;;;16.17;5.22;;;;;;;;;;5101386;28;20030;-82
2023/01/19 12:22:57;;;;;;;12.15;5.13;;;;;;;;;;5099398;28;20379;-81
2023/01/19 12:25:42;;;;;;;8.40;4.55;;;;;;;;;;5095494;28;20097;-81
2023/01/19 12:28:12;;;;;;;12.45;4.75;;;;;;;;;;5095472;28;20024;-82
2023/01/19 12:30:38;;;;;;;11.38;5.15;;;;;;;;;;5100031;28;20464;-82
2023/01/19 12:33:27;;;;;;;12.57;5.72;;;;;;;;;;5110507;28;20019;-81
2023/01/19 12:36:03;;;;;;;13.40;5.43;;;;;;;;;;5092521;28;20110;-81
2023/01/19 12:38:38;;;;;;;8.85;4.75;;;;;;;;;;5098227;28;20023;-81
2023/01/19 12:41:35;;;;;;;10.02;5.63;;;;;;;;;;5100157;28;20081;-82
2023/01/19 12:44:09;;;;;;;11.27;4.32;;;;;;;;;;5099085;28;20020;-81
2023/01/19 12:46:37;;;;;;;13.13;5.88;;;;;;;;;;5100091;28;20027;-82
2023/01/19 12:49:28;;;;;;;13.85;5.75;;;;;;;;;;5099761;28;20031;-82
2023/01/19 12:52:18;;;;;;;6.22;3.85;;;;;;;;;;5094519;28;20480;-82
2023/01/19 12:54:52;;;;;;;9.52;4.40;;;;;;;;;;5101275;28;20023;-81
2023/01/19 12:57:25;;;;;;;8.75;4.18;;;;;;;;;;5102361;28;20387;-82
2023/01/19 12:59:56;;;;;;;9.70;4.47;;;;;;;;;;5109587;28;20035;-81
2023/01/19 13:02:29;;;;;;;10.65;4.70;;;;;;;;;;5108607;28;20028;-81
2023/01/19 13:05:15;;;;;;;6.57;3.28;;;;;;;;;;5101163;28;20398;-81
2023/01/19 13:08:06;;;;;;;6.35;3.70;;;;;;;;;;5101551;28;20036;-81
2023/01/19 13:11:12;;;;;;;8.82;4.05;;;;;;;;;;5095716;28;20020;-81
2023/01/19 13:13:47;;;;;;;9.48;4.28;;;;;;;;;;5099482;28;20032;-81
2023/01/19 13:16:18;;;;;;;9.27;4.13;;;;;;;;;;5107220;28;20032;-82
2023/01/19 13:18:51;;;;;;;9.63;4.07;;;;;;;;;;5097063;28;20061;-82
2023/01/19 13:21:31;;;;;;;10.90;4.30;;;;;;;;;;5099308;28;20050;-81
2023/01/19 13:23:59;;;;;;;11.23;4.57;;;;;;;;;;5103618;28;20024;-82
2023/01/19 13:26:29;;;;;;;7.22;3.88;;;;;;;;;;5098737;28;20024;-82
2023/01/19 13:29:16;;;;;;;9.35;3.83;;;;;;;;;;5104470;28;20035;-82
2023/01/19 13:31:47;;;;;;;12.70;4.55;;;;;;;;;;5090753;28;20472;-81
2023/01/19 13:34:20;;;;;;;9.57;4.50;;;;;;;;;;5099622;28;20394;-81
2023/01/19 13:36:50;;;;;;;11.20;4.97;;;;;;;;;;5095980;28;20027;-81
2023/01/19 13:39:21;;;;;;;8.85;4.82;;;;;;;;;;5096808;28;20280;-82
2023/01/19 13:41:48;;;;;;;8.63;4.70;;;;;;;;;;5101442;28;20039;-81
2023/01/19 13:44:24;;;;;;;10.75;5.20;;;;;;;;;;5097929;28;20476;-82
2023/01/19 13:46:51;;;;;;;13.27;5.43;;;;;;;;;;5094785;28;20053;-81
2023/01/19 13:49:27;;;;;;;10.77;5.30;;;;;;;;;;5104810;28;20409;-81
2023/01/19 13:52:21;;;;;;;11.38;6.03;;;;;;;;;;5095947;28;20459;-81
2023/01/19 13:54:54;;;;;;;12.90;6.45;;;;;;;;;;5097702;28;20141;-81
2023/01/19 13:57:23;;;;;;;13.15;7.13;;;;;;;;;;5108220;28;20504;-81
2023/01/19 14:00:16;;;;;;;14.50;7.05;;;;;;;;;;5108584;28;20039;-81
2023/01/19 14:02:57;;;;;;;10.35;6.13;;;;;;;;;;5097366;28;20115;-81
2023/01/19 14:05:27;;;;;;;14.73;7.00;;;;;;;;;;5095487;28;20447;-82
2023/01/19 14:08:03;;;;;;;12.82;6.43;;;;;;;;;;5093695;28;20024;-81
2023/01/19 14:10:32;;;;;;;11.00;6.45;;;;;;;;;;5104396;28;20054;-81
2023/01/19 14:13:02;;;;;;;12.93;6.60;;;;;;;;;;5107410;27;20475;-81
2023/01/19 14:15:30;;;;;;;13.68;6.95;;;;;;;;;;5095596;28;20051;-81
2023/01/19 14:18:24;;;;;;;12.15;7.20;;;;;;;;;;5100625;28;20039;-81
2023/01/19 14:20:56;;;;;;;13.75;7.80;;;;;;;;;;5097967;28;20047;-81
2023/01/19 14:23:48;;;;;;;14.23;7.32;;;;;;;;;;5093460;28;20028;-81
2023/01/19 14:26:42;;;;;;;13.80;7.45;;;;;;;;;;5104569;28;20411;-82
2023/01/19 14:29:28;;;;;;;14.13;7.32;;;;;;;;;;5106272;28;20076;-82
2023/01/19 14:32:16;;;;;;;17.75;7.82;;;;;;;;;;5087646;28;20051;-82
2023/01/19 14:34:43;;;;;;;17.90;9.68;;;;;;;;;;5094753;28;20051;-82
2023/01/19 14:37:44;;;;;;;18.23;8.45;;;;;;;;;;5097983;28;20114;-82
2023/01/19 14:40:10;;;;;;;14.88;8.43;;;;;;;;;;5093353;28;20027;-82
2023/01/19 14:42:48;;;;;;;15.35;8.80;;;;;;;;;;5103362;28;20031;-82
2023/01/19 14:45:26;;;;;;;16.40;9.40;;;;;;;;;;5093670;28;20122;-82
2023/01/19 14:48:01;;;;;;;15.88;8.85;;;;;;;;;;5104475;28;20060;-81
2023/01/19 14:50:32;;;;;;;19.48;8.50;;;;;;;;;;5096676;28;20460;-81
2023/01/19 14:53:05;;;;;;;15.23;9.05;;;;;;;;;;5104091;28;20072;-82
2023/01/19 14:55:33;;;;;;;;;;;;;;;;;;5093745;28;20032;-82
2023/01/19 14:57:58;;;;;;;18.25;8.98;;;;;;;;;;5094446;28;20378;-81
2023/01/19 15:00:25;;;;;;;16.55;9.40;;;;;;;;;;5097526;28;20020;-81